Time,TemperatureF,DewpointF,PressureIn,WindDirection,WindDirectionDegrees,WindSpeedMPH,WindSpeedGustMPH,Humidity,HourlyPrecipIn,Conditions,Clouds,dailyrainin,SoftwareType,DateUTC
2013-09-23 00:04:00,35.3,34.0,29.64,WSW,242,3.0,3.0,95,0.03,,---,0.00,VWS V14.01,2013-09-23 06:04:00,
2013-09-23 00:09:00,35.2,33.9,29.64,WSW,242,2.0,2.0,95,0.03,,---,0.00,VWS V14.01,2013-09-23 06:09:00,
2013-09-23 00:14:00,35.3,34.0,29.64,WSW,242,1.0,1.0,95,0.04,,---,0.01,VWS V14.01,2013-09-23 06:14:00,
2013-09-23 00:19:00,35.3,34.0,29.64,WSW,242,3.0,4.0,95,0.04,,---,0.01,VWS V14.01,2013-09-23 06:19:00,
2013-09-23 00:24:00,35.2,33.9,29.63,WSW,242,3.0,3.0,95,0.04,,---,0.02,VWS V14.01,2013-09-23 06:24:00,
2013-09-23 00:29:00,35.1,33.8,29.64,WSW,242,7.0,7.0,95,0.04,,---,0.02,VWS V14.01,2013-09-23 06:29:00,
2013-09-23 00:34:00,34.9,33.6,29.63,WSW,242,5.0,6.0,95,0.05,,---,0.03,VWS V14.01,2013-09-23 06:34:00,
2013-09-23 00:39:00,34.7,33.4,29.63,WSW,242,4.0,5.0,95,0.05,,---,0.03,VWS V14.01,2013-09-23 06:39:00,
2013-09-23 00:44:00,34.5,33.2,29.63,WSW,242,4.0,4.0,95,0.06,,---,0.04,VWS V14.01,2013-09-23 06:44:00,
2013-09-23 00:49:00,34.2,32.9,29.64,WSW,242,1.0,2.0,95,0.07,,---,0.05,VWS V14.01,2013-09-23 06:49:00,
2013-09-23 00:54:00,34.0,32.7,29.63,WSW,242,2.0,2.0,95,0.06,,---,0.05,VWS V14.01,2013-09-23 06:54:00,
2013-09-23 00:59:00,33.7,32.4,29.63,WSW,242,2.0,2.0,95,0.06,,---,0.06,VWS V14.01,2013-09-23 06:59:00,
2013-09-23 01:04:00,33.5,32.0,29.64,WSW,242,1.0,1.0,94,0.06,,---,0.06,VWS V14.01,2013-09-23 07:04:00,
2013-09-23 01:09:00,33.4,32.1,29.63,WSW,242,3.0,3.0,95,0.07,,---,0.07,VWS V14.01,2013-09-23 07:09:00,
2013-09-23 01:15:00,33.2,31.9,29.63,WSW,242,4.0,4.0,95,0.06,,---,0.07,VWS V14.01,2013-09-23 07:15:00,
2013-09-23 01:20:00,33.1,31.8,29.63,WSW,242,3.0,3.0,95,0.07,,---,0.08,VWS V14.01,2013-09-23 07:20:00,
2013-09-23 01:25:00,33.0,31.7,29.63,WSW,242,3.0,3.0,95,0.06,,---,0.08,VWS V14.01,2013-09-23 07:25:00,
2013-09-23 01:30:00,33.0,31.7,29.63,WSW,242,2.0,3.0,95,0.07,,---,0.09,VWS V14.01,2013-09-23 07:30:00,
2013-09-23 01:35:00,33.1,31.8,29.64,WSW,242,2.0,2.0,95,0.07,,---,0.09,VWS V14.01,2013-09-23 07:35:00,
2013-09-23 01:40:00,33.2,31.9,29.63,WSW,242,0.0,0.0,95,0.06,,---,0.09,VWS V14.01,2013-09-23 07:40:00,
2013-09-23 01:45:00,33.4,32.1,29.63,WSW,242,0.0,0.0,95,0.06,,---,0.10,VWS V14.01,2013-09-23 07:45:00,
2013-09-23 01:50:00,33.5,32.2,29.64,WSW,242,3.0,3.0,95,0.05,,---,0.10,VWS V14.01,2013-09-23 07:50:00,
2013-09-23 01:55:00,33.7,32.7,29.64,WSW,242,2.0,3.0,96,0.05,,---,0.10,VWS V14.01,2013-09-23 07:55:00,
2013-09-23 02:00:00,33.9,32.6,29.63,WSW,242,3.0,4.0,95,0.04,,---,0.10,VWS V14.01,2013-09-23 08:00:00,
2013-09-23 02:05:00,33.9,32.6,29.64,WSW,242,3.0,4.0,95,0.05,,---,0.11,VWS V14.01,2013-09-23 08:05:00,
2013-09-23 02:10:00,34.1,32.8,29.64,WSW,242,4.0,4.0,95,0.04,,---,0.11,VWS V14.01,2013-09-23 08:10:00,
2013-09-23 02:15:00,34.2,32.9,29.64,WSW,242,3.0,3.0,95,0.04,,---,0.11,VWS V14.01,2013-09-23 08:15:00,
2013-09-23 02:20:00,34.3,33.0,29.65,WSW,242,3.0,3.0,95,0.04,,---,0.12,VWS V14.01,2013-09-23 08:20:00,
2013-09-23 02:25:00,34.3,33.0,29.65,WSW,242,2.0,3.0,95,0.04,,---,0.12,VWS V14.01,2013-09-23 08:25:00,
2013-09-23 02:30:00,34.4,33.1,29.65,WSW,242,3.0,5.0,95,0.03,,---,0.12,VWS V14.01,2013-09-23 08:30:00,
2013-09-23 02:35:00,34.5,33.2,29.65,WSW,242,0.0,1.0,95,0.04,,---,0.13,VWS V14.01,2013-09-23 08:35:00,
2013-09-23 02:40:00,34.6,33.3,29.65,WSW,242,1.0,3.0,95,0.04,,---,0.13,VWS V14.01,2013-09-23 08:40:00,
2013-09-23 02:45:00,34.6,33.3,29.66,WSW,242,3.0,3.0,95,0.03,,---,0.13,VWS V14.01,2013-09-23 08:45:00,
2013-09-23 02:50:00,34.7,33.4,29.66,WSW,242,5.0,6.0,95,0.04,,---,0.14,VWS V14.01,2013-09-23 08:50:00,
2013-09-23 02:55:00,34.8,33.5,29.66,WSW,242,6.0,7.0,95,0.04,,---,0.14,VWS V14.01,2013-09-23 08:55:00,
2013-09-23 03:00:00,34.8,33.5,29.67,WSW,242,6.0,6.0,95,0.04,,---,0.14,VWS V14.01,2013-09-23 09:00:00,
2013-09-23 03:05:00,34.8,33.5,29.67,West,279,6.0,7.0,95,0.04,,---,0.15,VWS V14.01,2013-09-23 09:05:00,
2013-09-23 03:10:00,34.8,33.2,29.67,NW,316,6.0,7.0,94,0.04,,---,0.15,VWS V14.01,2013-09-23 09:10:00,
2013-09-23 03:15:00,34.8,33.2,29.67,NW,315,4.0,6.0,94,0.05,,---,0.16,VWS V14.01,2013-09-23 09:15:00,
2013-09-23 03:20:00,34.8,33.2,29.67,NW,314,5.0,5.0,94,0.04,,---,0.16,VWS V14.01,2013-09-23 09:20:00,
2013-09-23 03:25:00,34.7,33.2,29.68,NW,314,5.0,5.0,94,0.04,,---,0.16,VWS V14.01,2013-09-23 09:25:00,
2013-09-23 03:30:00,34.6,32.8,29.68,NW,314,6.0,8.0,93,0.05,,---,0.17,VWS V14.01,2013-09-23 09:30:00,
2013-09-23 03:35:00,34.7,32.9,29.68,NW,310,7.0,7.0,93,0.04,,---,0.17,VWS V14.01,2013-09-23 09:35:00,
2013-09-23 03:40:00,34.7,33.2,29.69,NW,304,5.0,6.0,94,0.04,,---,0.17,VWS V14.01,2013-09-23 09:40:00,
2013-09-23 03:45:00,34.7,32.9,29.69,WNW,300,6.0,6.0,93,0.05,,---,0.18,VWS V14.01,2013-09-23 09:45:00,
2013-09-23 03:50:00,34.7,32.9,29.69,WNW,300,6.0,7.0,93,0.04,,---,0.18,VWS V14.01,2013-09-23 09:50:00,
2013-09-23 03:55:00,34.7,32.9,29.69,WNW,300,8.0,8.0,93,0.04,,---,0.18,VWS V14.01,2013-09-23 09:55:00,
2013-09-23 04:00:00,34.8,33.0,29.69,WNW,301,6.0,7.0,93,0.04,,---,0.18,VWS V14.01,2013-09-23 10:00:00,
2013-09-23 04:05:00,35.0,33.2,29.70,WNW,301,5.0,7.0,93,0.03,,---,0.18,VWS V14.01,2013-09-23 10:05:00,
2013-09-23 04:10:00,35.0,33.2,29.70,NW,306,7.0,7.0,93,0.03,,---,0.18,VWS V14.01,2013-09-23 10:10:00,
2013-09-23 04:15:00,35.1,33.0,29.71,NW,306,6.0,7.0,92,0.03,,---,0.19,VWS V14.01,2013-09-23 10:15:00,
2013-09-23 04:20:00,35.0,32.9,29.71,NW,305,7.0,7.0,92,0.03,,---,0.19,VWS V14.01,2013-09-23 10:20:00,
2013-09-23 04:25:00,34.8,32.7,29.71,NW,304,6.0,6.0,92,0.03,,---,0.19,VWS V14.01,2013-09-23 10:25:00,
2013-09-23 04:30:00,34.8,32.7,29.72,WNW,300,5.0,8.0,92,0.02,,---,0.19,VWS V14.01,2013-09-23 10:30:00,
2013-09-23 04:35:00,34.8,33.0,29.72,WNW,300,6.0,6.0,93,0.03,,---,0.20,VWS V14.01,2013-09-23 10:35:00,
2013-09-23 04:41:00,34.9,33.1,29.72,WNW,300,5.0,7.0,93,0.03,,---,0.20,VWS V14.01,2013-09-23 10:41:00,
2013-09-23 04:46:00,35.0,33.2,29.73,WNW,300,6.0,6.0,93,0.02,,---,0.20,VWS V14.01,2013-09-23 10:46:00,
2013-09-23 04:51:00,35.1,33.0,29.73,WNW,300,3.0,3.0,92,0.02,,---,0.20,VWS V14.01,2013-09-23 10:51:00,
2013-09-23 04:56:00,35.1,33.0,29.73,WNW,300,0.0,2.0,92,0.02,,---,0.20,VWS V14.01,2013-09-23 10:56:00,
2013-09-23 05:01:00,35.2,33.1,29.73,WNW,300,5.0,5.0,92,0.02,,---,0.20,VWS V14.01,2013-09-23 11:01:00,
2013-09-23 05:06:00,35.2,33.1,29.73,WNW,301,5.0,5.0,92,0.02,,---,0.20,VWS V14.01,2013-09-23 11:06:00,
2013-09-23 05:11:00,35.5,33.4,29.73,WNW,300,4.0,5.0,92,0.03,,---,0.21,VWS V14.01,2013-09-23 11:11:00,
2013-09-23 05:16:00,35.6,33.5,29.74,WNW,300,2.0,3.0,92,0.02,,---,0.21,VWS V14.01,2013-09-23 11:16:00,
2013-09-23 05:21:00,35.8,33.4,29.74,WNW,301,4.0,5.0,91,0.02,,---,0.21,VWS V14.01,2013-09-23 11:21:00,
2013-09-23 05:26:00,36.1,33.5,29.74,WNW,301,6.0,7.0,90,0.02,,---,0.21,VWS V14.01,2013-09-23 11:26:00,
2013-09-23 05:31:00,36.5,33.8,29.74,WNW,300,10.0,10.0,90,0.02,,---,0.21,VWS V14.01,2013-09-23 11:31:00,
2013-09-23 05:36:00,36.7,33.8,29.75,WNW,300,7.0,8.0,89,0.01,,---,0.21,VWS V14.01,2013-09-23 11:36:00,
2013-09-23 05:41:00,36.9,33.7,29.75,WNW,302,8.0,10.0,88,0.01,,---,0.21,VWS V14.01,2013-09-23 11:41:00,
2013-09-23 05:46:00,37.1,33.9,29.75,NW,305,5.0,7.0,88,0.01,,---,0.21,VWS V14.01,2013-09-23 11:46:00,
2013-09-23 05:51:00,37.1,33.9,29.75,NW,305,5.0,6.0,88,0.01,,---,0.21,VWS V14.01,2013-09-23 11:51:00,
2013-09-23 05:56:00,37.2,34.0,29.75,NW,309,11.0,14.0,88,0.01,,---,0.21,VWS V14.01,2013-09-23 11:56:00,
2013-09-23 06:01:00,37.4,33.9,29.75,NW,315,8.0,8.0,87,0.01,,---,0.21,VWS V14.01,2013-09-23 12:01:00,
2013-09-23 06:06:00,37.6,33.8,29.75,NW,321,9.0,10.0,86,0.01,,---,0.21,VWS V14.01,2013-09-23 12:06:00,
2013-09-23 06:11:00,37.7,33.9,29.76,NNW,346,6.0,8.0,86,0.01,,---,0.21,VWS V14.01,2013-09-23 12:11:00,
2013-09-23 06:16:00,37.7,33.9,29.76,NW,313,7.0,9.0,86,0.00,,---,0.21,VWS V14.01,2013-09-23 12:16:00,
2013-09-23 06:21:00,37.8,34.0,29.76,NNW,336,5.0,7.0,86,0.00,,---,0.21,VWS V14.01,2013-09-23 12:21:00,
2013-09-23 06:26:00,37.7,34.2,29.76,NNW,340,4.0,5.0,87,0.00,,---,0.21,VWS V14.01,2013-09-23 12:26:00,
2013-09-23 06:31:00,37.5,34.0,29.76,NW,325,10.0,10.0,87,0.00,,---,0.21,VWS V14.01,2013-09-23 12:31:00,
2013-09-23 06:36:00,37.5,34.0,29.77,NW,320,7.0,8.0,87,0.00,,---,0.21,VWS V14.01,2013-09-23 12:36:00,
2013-09-23 06:41:00,37.5,33.7,29.77,NW,323,8.0,8.0,86,0.00,,---,0.21,VWS V14.01,2013-09-23 12:41:00,
2013-09-23 06:46:00,37.5,33.7,29.77,NNW,334,10.0,10.0,86,0.00,,---,0.21,VWS V14.01,2013-09-23 12:46:00,
2013-09-23 06:51:00,37.5,33.7,29.77,NNW,338,7.0,8.0,86,0.00,,---,0.21,VWS V14.01,2013-09-23 12:51:00,
2013-09-23 06:56:00,37.4,33.6,29.77,NW,316,7.0,7.0,86,0.00,,---,0.21,VWS V14.01,2013-09-23 12:56:00,
2013-09-23 07:01:00,37.7,33.6,29.77,WNW,294,7.0,7.0,85,0.00,,---,0.21,VWS V14.01,2013-09-23 13:01:00,
2013-09-23 07:06:00,37.9,33.8,29.77,West,281,7.0,10.0,85,0.00,,---,0.21,VWS V14.01,2013-09-23 13:06:00,
2013-09-23 07:11:00,38.0,33.6,29.77,WNW,293,11.0,14.0,84,0.00,,---,0.21,VWS V14.01,2013-09-23 13:11:00,
2013-09-23 07:16:00,38.3,33.6,29.78,West,275,12.0,12.0,83,0.00,,---,0.21,VWS V14.01,2013-09-23 13:16:00,
2013-09-23 07:21:00,38.2,34.1,29.78,WNW,282,9.0,10.0,85,0.00,,---,0.21,VWS V14.01,2013-09-23 13:21:00,
2013-09-23 07:26:00,38.0,33.9,29.78,WNW,289,7.0,9.0,85,0.00,,---,0.21,VWS V14.01,2013-09-23 13:26:00,
2013-09-23 07:31:00,37.9,33.8,29.78,WNW,290,12.0,14.0,85,0.00,,---,0.21,VWS V14.01,2013-09-23 13:31:00,
2013-09-23 07:37:00,38.0,33.6,29.79,West,278,11.0,13.0,84,0.00,,---,0.21,VWS V14.01,2013-09-23 13:37:00,
2013-09-23 07:42:00,38.3,33.9,29.79,West,280,6.0,11.0,84,0.00,,---,0.21,VWS V14.01,2013-09-23 13:42:00,
2013-09-23 07:47:00,38.3,33.6,29.80,WNW,294,13.0,14.0,83,0.00,,---,0.21,VWS V14.01,2013-09-23 13:47:00,
2013-09-23 07:52:00,38.4,33.4,29.80,WNW,297,9.0,14.0,82,0.00,,---,0.21,VWS V14.01,2013-09-23 13:52:00,
2013-09-23 07:57:00,38.6,33.3,29.80,WNW,292,13.0,13.0,81,0.00,,---,0.21,VWS V14.01,2013-09-23 13:57:00,
2013-09-23 08:02:00,38.6,33.6,29.80,WNW,295,7.0,9.0,82,0.00,,---,0.21,VWS V14.01,2013-09-23 14:02:00,
2013-09-23 08:07:00,38.6,33.3,29.81,NW,317,18.0,18.0,81,0.00,,---,0.21,VWS V14.01,2013-09-23 14:07:00,
2013-09-23 08:12:00,38.7,33.4,29.80,WNW,298,14.0,19.0,81,0.00,,---,0.21,VWS V14.01,2013-09-23 14:12:00,
2013-09-23 08:17:00,38.7,32.8,29.81,WNW,298,18.0,18.0,79,0.00,,---,0.21,VWS V14.01,2013-09-23 14:17:00,
2013-09-23 08:22:00,38.7,33.1,29.81,WNW,292,11.0,12.0,80,0.00,,---,0.21,VWS V14.01,2013-09-23 14:22:00,
2013-09-23 08:27:00,39.0,33.4,29.82,West,281,11.0,17.0,80,0.00,,---,0.21,VWS V14.01,2013-09-23 14:27:00,
2013-09-23 08:32:00,39.3,33.7,29.82,WNW,287,10.0,13.0,80,0.00,,---,0.21,VWS V14.01,2013-09-23 14:32:00,
2013-09-23 08:37:00,39.3,33.7,29.82,WNW,285,8.0,14.0,80,0.00,,---,0.21,VWS V14.01,2013-09-23 14:37:00,
2013-09-23 08:42:00,38.8,33.8,29.82,West,275,8.0,11.0,82,0.00,,---,0.21,VWS V14.01,2013-09-23 14:42:00,
2013-09-23 08:47:00,38.6,33.6,29.82,WNW,290,11.0,11.0,82,0.00,,---,0.21,VWS V14.01,2013-09-23 14:47:00,
2013-09-23 08:52:00,39.4,34.7,29.82,WNW,288,8.0,9.0,83,0.00,,---,0.21,VWS V14.01,2013-09-23 14:52:00,
2013-09-23 08:57:00,39.9,34.5,29.82,WNW,284,14.0,14.0,81,0.00,,---,0.21,VWS V14.01,2013-09-23 14:57:00,
2013-09-23 09:02:00,39.7,34.0,29.83,West,276,12.0,12.0,80,0.00,,---,0.21,VWS V14.01,2013-09-23 15:02:00,
2013-09-23 09:07:00,39.8,32.9,29.83,WNW,286,9.0,9.0,76,0.00,,---,0.21,VWS V14.01,2013-09-23 15:07:00,
2013-09-23 09:12:00,39.8,32.2,29.84,West,277,14.0,14.0,74,0.00,,---,0.21,VWS V14.01,2013-09-23 15:12:00,
2013-09-23 09:17:00,39.6,31.7,29.85,West,279,14.0,15.0,73,0.00,,---,0.21,VWS V14.01,2013-09-23 15:17:00,
2013-09-23 09:22:00,40.0,33.1,29.85,West,269,10.0,13.0,76,0.00,,---,0.21,VWS V14.01,2013-09-23 15:22:00,
2013-09-23 09:27:00,40.7,32.4,29.86,WNW,294,12.0,12.0,72,0.00,,---,0.21,VWS V14.01,2013-09-23 15:27:00,
2013-09-23 09:32:00,40.7,32.4,29.86,West,277,11.0,11.0,72,0.00,,---,0.21,VWS V14.01,2013-09-23 15:32:00,
2013-09-23 09:38:00,40.8,32.5,29.86,WNW,296,8.0,8.0,72,0.00,,---,0.21,VWS V14.01,2013-09-23 15:38:00,
2013-09-23 09:43:00,40.7,31.0,29.87,WNW,291,16.0,16.0,68,0.00,,---,0.21,VWS V14.01,2013-09-23 15:43:00,
2013-09-23 09:48:00,40.6,30.9,29.87,NW,316,10.0,14.0,68,0.00,,---,0.21,VWS V14.01,2013-09-23 15:48:00,
2013-09-23 09:53:00,40.9,32.2,29.87,West,271,18.0,18.0,71,0.00,,---,0.21,VWS V14.01,2013-09-23 15:53:00,
2013-09-23 09:58:00,42.4,33.3,29.87,NW,306,17.0,22.0,70,0.00,,---,0.21,VWS V14.01,2013-09-23 15:58:00,
2013-09-23 10:03:00,42.7,31.8,29.88,West,277,18.0,21.0,65,0.00,,---,0.21,VWS V14.01,2013-09-23 16:03:00,
2013-09-23 10:08:00,43.0,31.7,29.88,WNW,284,20.0,22.0,64,0.00,,---,0.21,VWS V14.01,2013-09-23 16:08:00,
2013-09-23 10:13:00,43.2,33.4,29.89,WNW,288,16.0,19.0,68,0.00,,---,0.21,VWS V14.01,2013-09-23 16:13:00,
2013-09-23 10:18:00,44.2,34.0,29.89,WNW,302,14.0,16.0,67,0.00,,---,0.21,VWS V14.01,2013-09-23 16:18:00,
2013-09-23 10:23:00,44.6,33.2,29.89,West,266,17.0,19.0,64,0.00,,---,0.21,VWS V14.01,2013-09-23 16:23:00,
2013-09-23 10:28:00,45.0,34.3,29.89,WNW,292,13.0,16.0,66,0.00,,---,0.21,VWS V14.01,2013-09-23 16:28:00,
2013-09-23 10:33:00,44.2,32.4,29.90,WNW,303,14.0,16.0,63,0.00,,---,0.21,VWS V14.01,2013-09-23 16:33:00,
2013-09-23 10:38:00,44.3,33.3,29.90,West,266,20.0,20.0,65,0.00,,---,0.21,VWS V14.01,2013-09-23 16:38:00,
2013-09-23 10:43:00,45.2,33.8,29.90,WNW,289,17.0,17.0,64,0.00,,---,0.21,VWS V14.01,2013-09-23 16:43:00,
2013-09-23 10:48:00,44.9,34.2,29.90,West,263,15.0,19.0,66,0.00,,---,0.21,VWS V14.01,2013-09-23 16:48:00,
2013-09-23 10:53:00,45.6,34.5,29.90,West,277,16.0,21.0,65,0.00,,---,0.21,VWS V14.01,2013-09-23 16:53:00,
2013-09-23 10:58:00,45.3,33.1,29.91,West,261,13.0,13.0,62,0.00,,---,0.21,VWS V14.01,2013-09-23 16:58:00,
2013-09-23 11:03:00,44.8,32.6,29.91,WSW,250,16.0,25.0,62,0.00,,---,0.21,VWS V14.01,2013-09-23 17:03:00,
2013-09-23 11:08:00,44.9,32.3,29.91,WNW,298,27.0,27.0,61,0.00,,---,0.21,VWS V14.01,2013-09-23 17:08:00,
2013-09-23 11:13:00,44.9,32.7,29.92,West,268,15.0,19.0,62,0.00,,---,0.21,VWS V14.01,2013-09-23 17:13:00,
2013-09-23 11:18:00,45.7,33.0,29.92,West,267,17.0,23.0,61,0.00,,---,0.21,VWS V14.01,2013-09-23 17:18:00,
2013-09-23 11:23:00,45.4,32.3,29.92,WSW,253,14.0,19.0,60,0.00,,---,0.21,VWS V14.01,2013-09-23 17:23:00,
2013-09-23 11:28:00,45.4,31.1,29.92,WNW,295,15.0,20.0,57,0.00,,---,0.21,VWS V14.01,2013-09-23 17:28:00,
2013-09-23 11:33:00,45.8,31.9,29.93,WNW,284,16.0,22.0,58,0.00,,---,0.21,VWS V14.01,2013-09-23 17:33:00,
2013-09-23 11:38:00,45.8,33.5,29.93,West,277,14.0,14.0,62,0.00,,---,0.21,VWS V14.01,2013-09-23 17:38:00,
2013-09-23 11:43:00,45.8,31.9,29.93,West,264,13.0,16.0,58,0.00,,---,0.21,VWS V14.01,2013-09-23 17:43:00,
2013-09-23 11:48:00,45.7,32.2,29.93,West,267,21.0,26.0,59,0.00,,---,0.21,VWS V14.01,2013-09-23 17:48:00,
2013-09-23 11:53:00,45.3,32.2,29.93,West,263,19.0,22.0,60,0.00,,---,0.21,VWS V14.01,2013-09-23 17:53:00,
2013-09-23 11:58:00,45.8,33.1,29.94,West,262,19.0,21.0,61,0.00,,---,0.21,VWS V14.01,2013-09-23 17:58:00,
2013-09-23 12:04:00,46.0,32.1,29.94,West,277,14.0,20.0,58,0.00,,---,0.21,VWS V14.01,2013-09-23 18:04:00,
2013-09-23 12:09:00,46.2,33.1,29.94,WSW,257,18.0,22.0,60,0.00,,---,0.21,VWS V14.01,2013-09-23 18:09:00,
2013-09-23 12:14:00,46.4,32.4,29.94,WSW,258,20.0,20.0,58,0.00,,---,0.21,VWS V14.01,2013-09-23 18:14:00,
2013-09-23 12:19:00,46.9,32.9,29.94,West,269,16.0,23.0,58,0.00,,---,0.21,VWS V14.01,2013-09-23 18:19:00,
2013-09-23 12:24:00,46.8,32.0,29.94,WSW,251,16.0,25.0,56,0.00,,---,0.21,VWS V14.01,2013-09-23 18:24:00,
2013-09-23 12:29:00,46.8,32.0,29.94,West,273,18.0,25.0,56,0.00,,---,0.21,VWS V14.01,2013-09-23 18:29:00,
2013-09-23 12:34:00,46.8,31.5,29.95,West,266,15.0,22.0,55,0.00,,---,0.21,VWS V14.01,2013-09-23 18:34:00,
2013-09-23 12:39:00,46.7,30.5,29.95,WNW,282,15.0,22.0,53,0.00,,---,0.21,VWS V14.01,2013-09-23 18:39:00,
2013-09-23 12:44:00,47.3,32.4,29.95,WNW,290,14.0,21.0,56,0.00,,---,0.21,VWS V14.01,2013-09-23 18:44:00,
2013-09-23 12:49:00,47.2,32.3,29.95,West,267,19.0,24.0,56,0.00,,---,0.21,VWS V14.01,2013-09-23 18:49:00,
2013-09-23 12:54:00,47.6,33.1,29.96,West,278,18.0,22.0,57,0.00,,---,0.21,VWS V14.01,2013-09-23 18:54:00,
2013-09-23 12:59:00,47.4,31.1,29.96,West,265,11.0,19.0,53,0.00,,---,0.21,VWS V14.01,2013-09-23 18:59:00,
2013-09-23 13:04:00,47.7,33.2,29.96,WSW,245,13.0,13.0,57,0.00,,---,0.21,VWS V14.01,2013-09-23 19:04:00,
2013-09-23 13:09:00,47.4,30.7,29.97,NW,305,12.0,15.0,52,0.00,,---,0.21,VWS V14.01,2013-09-23 19:09:00,
2013-09-23 13:14:00,47.1,29.4,29.97,West,264,14.0,22.0,50,0.00,,---,0.21,VWS V14.01,2013-09-23 19:14:00,
2013-09-23 13:19:00,47.4,32.1,29.97,West,269,11.0,16.0,55,0.00,,---,0.21,VWS V14.01,2013-09-23 19:19:00,
2013-09-23 13:24:00,47.8,31.5,29.97,WNW,297,12.0,12.0,53,0.00,,---,0.21,VWS V14.01,2013-09-23 19:24:00,
2013-09-23 13:29:00,47.4,33.0,29.97,West,277,12.0,17.0,57,0.00,,---,0.21,VWS V14.01,2013-09-23 19:29:00,
2013-09-23 13:34:00,46.3,30.6,29.97,West,272,9.0,11.0,54,0.00,,---,0.21,VWS V14.01,2013-09-23 19:34:00,
2013-09-23 13:39:00,47.2,32.8,29.98,WNW,287,14.0,16.0,57,0.00,,---,0.21,VWS V14.01,2013-09-23 19:39:00,
2013-09-23 13:44:00,46.5,32.1,29.98,WSW,257,12.0,14.0,57,0.00,,---,0.21,VWS V14.01,2013-09-23 19:44:00,
2013-09-23 13:49:00,46.8,32.8,29.98,West,281,14.0,16.0,58,0.00,,---,0.21,VWS V14.01,2013-09-23 19:49:00,
2013-09-23 13:54:00,47.0,30.8,29.98,West,279,12.0,21.0,53,0.00,,---,0.21,VWS V14.01,2013-09-23 19:54:00,
2013-09-23 13:59:00,46.5,30.3,29.99,West,265,13.0,13.0,53,0.00,,---,0.21,VWS V14.01,2013-09-23 19:59:00,
2013-09-23 14:04:00,46.0,31.2,29.99,NW,317,11.0,14.0,56,0.00,,---,0.21,VWS V14.01,2013-09-23 20:04:00,
2013-09-23 14:09:00,46.0,30.3,29.99,NNW,329,12.0,14.0,54,0.00,,---,0.21,VWS V14.01,2013-09-23 20:09:00,
2013-09-23 14:14:00,45.5,31.2,29.99,WNW,292,11.0,11.0,57,0.00,,---,0.21,VWS V14.01,2013-09-23 20:14:00,
2013-09-23 14:19:00,45.5,30.7,30.00,WNW,295,10.0,12.0,56,0.00,,---,0.21,VWS V14.01,2013-09-23 20:19:00,
2013-09-23 14:24:00,45.4,31.1,30.00,NW,319,8.0,13.0,57,0.00,,---,0.21,VWS V14.01,2013-09-23 20:24:00,
2013-09-23 14:30:00,46.0,31.6,30.00,NW,308,14.0,17.0,57,0.00,,---,0.21,VWS V14.01,2013-09-23 20:30:00,
2013-09-23 14:35:00,45.8,29.2,30.01,WNW,288,14.0,14.0,52,0.00,,---,0.21,VWS V14.01,2013-09-23 20:35:00,
2013-09-23 14:40:00,46.0,30.3,30.00,NW,313,12.0,18.0,54,0.00,,---,0.21,VWS V14.01,2013-09-23 20:40:00,
2013-09-23 14:45:00,46.4,30.7,30.01,WNW,302,17.0,17.0,54,0.00,,---,0.21,VWS V14.01,2013-09-23 20:45:00,
2013-09-23 14:50:00,47.2,31.4,30.00,NW,314,9.0,14.0,54,0.00,,---,0.21,VWS V14.01,2013-09-23 20:50:00,
2013-09-23 14:55:00,49.0,32.6,30.01,WNW,294,12.0,12.0,53,0.00,,---,0.21,VWS V14.01,2013-09-23 20:55:00,
2013-09-23 15:00:00,50.1,30.1,30.01,West,267,17.0,17.0,46,0.00,,---,0.21,VWS V14.01,2013-09-23 21:00:00,
2013-09-23 15:05:00,49.6,30.7,30.01,NW,321,15.0,15.0,48,0.00,,---,0.21,VWS V14.01,2013-09-23 21:05:00,
2013-09-23 15:10:00,50.1,30.1,30.01,WNW,302,20.0,23.0,46,0.00,,---,0.21,VWS V14.01,2013-09-23 21:10:00,
2013-09-23 15:15:00,50.1,30.7,30.01,WNW,302,13.0,18.0,47,0.00,,---,0.21,VWS V14.01,2013-09-23 21:15:00,
2013-09-23 15:20:00,49.8,28.8,30.01,WNW,296,18.0,22.0,44,0.00,,---,0.21,VWS V14.01,2013-09-23 21:20:00,
2013-09-23 15:25:00,49.7,30.3,30.02,WNW,300,13.0,14.0,47,0.00,,---,0.21,VWS V14.01,2013-09-23 21:25:00,
2013-09-23 15:30:00,49.6,30.2,30.02,NNW,327,18.0,18.0,47,0.00,,---,0.21,VWS V14.01,2013-09-23 21:30:00,
2013-09-23 15:35:00,49.6,30.7,30.02,WNW,284,15.0,15.0,48,0.00,,---,0.21,VWS V14.01,2013-09-23 21:35:00,
2013-09-23 15:40:00,49.4,29.5,30.02,NW,315,8.0,11.0,46,0.00,,---,0.21,VWS V14.01,2013-09-23 21:40:00,
2013-09-23 15:45:00,49.5,29.6,30.02,NW,307,15.0,15.0,46,0.00,,---,0.21,VWS V14.01,2013-09-23 21:45:00,
2013-09-23 15:50:00,48.4,28.0,30.02,NW,304,16.0,16.0,45,0.00,,---,0.21,VWS V14.01,2013-09-23 21:50:00,
2013-09-23 15:55:00,49.4,30.0,30.03,WNW,288,10.0,10.0,47,0.00,,---,0.21,VWS V14.01,2013-09-23 21:55:00,
2013-09-23 16:00:00,49.3,31.0,30.03,West,270,8.0,10.0,49,0.00,,---,0.21,VWS V14.01,2013-09-23 22:00:00,
2013-09-23 16:05:00,50.3,30.9,30.03,West,265,9.0,13.0,47,0.00,,---,0.21,VWS V14.01,2013-09-23 22:05:00,
2013-09-23 16:10:00,49.7,28.7,30.03,WNW,289,9.0,9.0,44,0.00,,---,0.21,VWS V14.01,2013-09-23 22:10:00,
2013-09-23 16:15:00,50.2,29.1,30.03,WNW,297,7.0,7.0,44,0.00,,---,0.21,VWS V14.01,2013-09-23 22:15:00,
2013-09-23 16:20:00,50.1,31.2,30.03,WSW,257,15.0,15.0,48,0.00,,---,0.21,VWS V14.01,2013-09-23 22:20:00,
2013-09-23 16:25:00,49.7,29.8,30.03,NW,306,9.0,13.0,46,0.00,,---,0.21,VWS V14.01,2013-09-23 22:25:00,
2013-09-23 16:30:00,49.7,30.8,30.04,West,261,6.0,7.0,48,0.00,,---,0.21,VWS V14.01,2013-09-23 22:30:00,
2013-09-23 16:35:00,49.2,30.9,30.04,West,269,4.0,9.0,49,0.00,,---,0.21,VWS V14.01,2013-09-23 22:35:00,
2013-09-23 16:40:00,49.6,31.2,30.04,WNW,282,9.0,13.0,49,0.00,,---,0.21,VWS V14.01,2013-09-23 22:40:00,
2013-09-23 16:45:00,49.9,30.0,30.04,West,261,6.0,7.0,46,0.00,,---,0.21,VWS V14.01,2013-09-23 22:45:00,
2013-09-23 16:50:00,49.3,29.4,30.04,WNW,290,10.0,15.0,46,0.00,,---,0.21,VWS V14.01,2013-09-23 22:50:00,
2013-09-23 16:56:00,49.7,31.3,30.05,WNW,286,8.0,9.0,49,0.00,,---,0.21,VWS V14.01,2013-09-23 22:56:00,
2013-09-23 17:01:00,49.0,30.2,30.05,WSW,249,10.0,13.0,48,0.00,,---,0.21,VWS V14.01,2013-09-23 23:01:00,
2013-09-23 17:06:00,48.5,30.7,30.05,WSW,252,15.0,15.0,50,0.00,,---,0.21,VWS V14.01,2013-09-23 23:06:00,
2013-09-23 17:11:00,48.1,29.4,30.05,West,259,11.0,13.0,48,0.00,,---,0.21,VWS V14.01,2013-09-23 23:11:00,
2013-09-23 17:16:00,48.0,30.8,30.05,WSW,252,11.0,15.0,51,0.00,,---,0.21,VWS V14.01,2013-09-23 23:16:00,
2013-09-23 17:21:00,47.6,30.9,30.05,West,260,11.0,14.0,52,0.00,,---,0.21,VWS V14.01,2013-09-23 23:21:00,
2013-09-23 17:26:00,47.3,31.5,30.06,West,279,8.0,10.0,54,0.00,,---,0.21,VWS V14.01,2013-09-23 23:26:00,
2013-09-23 17:31:00,47.2,31.0,30.06,West,261,9.0,11.0,53,0.00,,---,0.21,VWS V14.01,2013-09-23 23:31:00,
2013-09-23 17:36:00,47.0,30.8,30.06,WSW,242,13.0,14.0,53,0.00,,---,0.21,VWS V14.01,2013-09-23 23:36:00,
2013-09-23 17:41:00,47.1,31.8,30.06,West,277,11.0,13.0,55,0.00,,---,0.21,VWS V14.01,2013-09-23 23:41:00,
2013-09-23 17:46:00,47.2,31.9,30.06,West,259,8.0,10.0,55,0.00,,---,0.21,VWS V14.01,2013-09-23 23:46:00,
2013-09-23 17:51:00,47.0,31.2,30.06,WSW,246,5.0,10.0,54,0.00,,---,0.21,VWS V14.01,2013-09-23 23:51:00,
2013-09-23 17:56:00,47.0,32.1,30.07,WSW,247,4.0,6.0,56,0.00,,---,0.21,VWS V14.01,2013-09-23 23:56:00,
2013-09-23 18:01:00,46.9,31.6,30.07,WSW,249,6.0,7.0,55,0.00,,---,0.21,VWS V14.01,2013-09-24 00:01:00,
2013-09-23 18:06:00,46.7,31.4,30.07,WSW,250,5.0,6.0,55,0.00,,---,0.21,VWS V14.01,2013-09-24 00:06:00,
2013-09-23 18:11:00,46.3,31.9,30.07,WSW,250,6.0,8.0,57,0.00,,---,0.21,VWS V14.01,2013-09-24 00:11:00,
2013-09-23 18:16:00,45.6,31.7,30.08,WSW,250,6.0,7.0,58,0.00,,---,0.21,VWS V14.01,2013-09-24 00:16:00,
2013-09-23 18:21:00,45.1,32.5,30.07,WSW,250,4.0,5.0,61,0.00,,---,0.21,VWS V14.01,2013-09-24 00:21:00,
2013-09-23 18:26:00,44.9,33.1,30.07,WSW,250,2.0,4.0,63,0.00,,---,0.21,VWS V14.01,2013-09-24 00:26:00,
2013-09-23 18:31:00,44.6,34.0,30.08,WSW,250,0.0,0.0,66,0.00,,---,0.21,VWS V14.01,2013-09-24 00:31:00,
2013-09-23 18:36:00,44.1,32.3,30.08,WSW,250,0.0,0.0,63,0.00,,---,0.21,VWS V14.01,2013-09-24 00:36:00,
2013-09-23 18:41:00,43.7,33.5,30.08,WSW,250,0.0,0.0,67,0.00,,---,0.21,VWS V14.01,2013-09-24 00:41:00,
2013-09-23 18:46:00,43.2,33.0,30.08,WSW,250,0.0,0.0,67,0.00,,---,0.21,VWS V14.01,2013-09-24 00:46:00,
2013-09-23 18:51:00,42.1,32.0,30.08,WSW,250,0.0,1.0,67,0.00,,---,0.21,VWS V14.01,2013-09-24 00:51:00,
2013-09-23 18:56:00,41.2,31.8,30.09,WSW,250,0.0,0.0,69,0.00,,---,0.21,VWS V14.01,2013-09-24 00:56:00,
2013-09-23 19:01:00,40.8,32.8,30.09,WSW,250,0.0,0.0,73,0.00,,---,0.21,VWS V14.01,2013-09-24 01:01:00,
2013-09-23 19:06:00,40.5,33.2,30.09,WSW,250,0.0,0.0,75,0.00,,---,0.21,VWS V14.01,2013-09-24 01:06:00,
2013-09-23 19:11:00,40.2,32.9,30.10,WSW,250,2.0,2.0,75,0.00,,---,0.21,VWS V14.01,2013-09-24 01:11:00,
2013-09-23 19:16:00,39.7,32.1,30.10,WSW,250,4.0,4.0,74,0.00,,---,0.21,VWS V14.01,2013-09-24 01:16:00,
2013-09-23 19:21:00,39.1,32.2,30.10,WSW,250,0.0,0.0,76,0.00,,---,0.21,VWS V14.01,2013-09-24 01:21:00,
2013-09-23 19:26:00,38.6,31.7,30.10,WSW,250,6.0,6.0,76,0.00,,---,0.21,VWS V14.01,2013-09-24 01:26:00,
2013-09-23 19:31:00,37.7,31.1,30.10,WSW,250,3.0,4.0,77,0.00,,---,0.21,VWS V14.01,2013-09-24 01:31:00,
2013-09-23 19:36:00,37.3,31.4,30.11,WSW,250,5.0,5.0,79,0.00,,---,0.21,VWS V14.01,2013-09-24 01:36:00,
2013-09-23 19:42:00,36.8,31.2,30.11,WSW,250,7.0,7.0,80,0.00,,---,0.21,VWS V14.01,2013-09-24 01:42:00,
2013-09-23 19:47:00,36.3,31.0,30.12,NW,311,6.0,6.0,81,0.00,,---,0.21,VWS V14.01,2013-09-24 01:47:00,
2013-09-23 19:52:00,35.9,31.0,30.12,NNW,331,6.0,9.0,82,0.00,,---,0.21,VWS V14.01,2013-09-24 01:52:00,
2013-09-23 19:57:00,35.7,30.8,30.12,NNW,332,4.0,6.0,82,0.00,,---,0.21,VWS V14.01,2013-09-24 01:57:00,
2013-09-23 20:02:00,35.8,30.9,30.12,NNW,332,4.0,6.0,82,0.00,,---,0.21,VWS V14.01,2013-09-24 02:02:00,
2013-09-23 20:07:00,35.9,31.0,30.13,NNW,332,3.0,4.0,82,0.00,,---,0.21,VWS V14.01,2013-09-24 02:07:00,
2013-09-23 20:12:00,36.0,31.4,30.13,NNW,329,4.0,4.0,83,0.00,,---,0.21,VWS V14.01,2013-09-24 02:12:00,
2013-09-23 20:17:00,36.1,31.7,30.14,NW,322,2.0,5.0,84,0.00,,---,0.21,VWS V14.01,2013-09-24 02:17:00,
2013-09-23 20:22:00,35.9,31.0,30.14,NW,323,6.0,6.0,82,0.00,,---,0.21,VWS V14.01,2013-09-24 02:22:00,
2013-09-23 20:27:00,35.5,30.9,30.14,NW,323,1.0,3.0,83,0.00,,---,0.21,VWS V14.01,2013-09-24 02:27:00,
2013-09-23 20:32:00,35.3,31.0,30.15,NW,323,3.0,4.0,84,0.00,,---,0.21,VWS V14.01,2013-09-24 02:32:00,
2013-09-23 20:37:00,35.2,30.9,30.15,NW,323,0.0,1.0,84,0.00,,---,0.21,VWS V14.01,2013-09-24 02:37:00,
2013-09-23 20:42:00,35.1,30.8,30.16,NW,323,3.0,3.0,84,0.00,,---,0.21,VWS V14.01,2013-09-24 02:42:00,
2013-09-23 20:47:00,34.9,30.6,30.16,NW,323,3.0,4.0,84,0.00,,---,0.21,VWS V14.01,2013-09-24 02:47:00,
2013-09-23 20:52:00,34.9,30.9,30.16,NW,323,1.0,5.0,85,0.00,,---,0.21,VWS V14.01,2013-09-24 02:52:00,
2013-09-23 20:57:00,35.1,31.0,30.16,NW,323,3.0,5.0,85,0.00,,---,0.21,VWS V14.01,2013-09-24 02:57:00,
2013-09-23 21:02:00,35.2,31.1,30.17,NW,323,0.0,0.0,85,0.00,,---,0.21,VWS V14.01,2013-09-24 03:02:00,
2013-09-23 21:07:00,35.1,31.0,30.17,NW,323,0.0,0.0,85,0.00,,---,0.21,VWS V14.01,2013-09-24 03:07:00,
2013-09-23 21:12:00,35.0,31.0,30.17,NW,323,0.0,0.0,85,0.00,,---,0.21,VWS V14.01,2013-09-24 03:12:00,
2013-09-23 21:17:00,34.8,30.8,30.17,NW,323,2.0,3.0,85,0.00,,---,0.21,VWS V14.01,2013-09-24 03:17:00,
2013-09-23 21:22:00,34.7,30.7,30.17,NW,323,0.0,1.0,85,0.00,,---,0.21,VWS V14.01,2013-09-24 03:22:00,
2013-09-23 21:27:00,34.7,31.0,30.18,NW,323,0.0,2.0,86,0.00,,---,0.21,VWS V14.01,2013-09-24 03:27:00,
2013-09-23 21:32:00,34.6,30.9,30.18,NW,323,2.0,3.0,86,0.00,,---,0.21,VWS V14.01,2013-09-24 03:32:00,
2013-09-23 21:37:00,34.5,30.8,30.18,NW,323,0.0,0.0,86,0.00,,---,0.21,VWS V14.01,2013-09-24 03:37:00,
2013-09-23 21:42:00,34.4,30.6,30.18,NW,323,1.0,1.0,86,0.00,,---,0.21,VWS V14.01,2013-09-24 03:42:00,
2013-09-23 21:47:00,34.0,30.0,30.18,NW,323,0.0,0.0,85,0.00,,---,0.21,VWS V14.01,2013-09-24 03:47:00,
2013-09-23 21:52:00,33.5,29.8,30.19,NW,323,0.0,0.0,86,0.00,,---,0.21,VWS V14.01,2013-09-24 03:52:00,
2013-09-23 21:57:00,32.9,29.2,30.19,NW,323,3.0,3.0,86,0.00,,---,0.21,VWS V14.01,2013-09-24 03:57:00,
2013-09-23 22:01:00,32.6,29.2,30.18,NW,323,3.0,5.0,87,0.00,,---,0.21,VWS V14.01,2013-09-24 04:01:00,
2013-09-23 22:02:00,32.6,29.2,30.18,NW,323,3.0,4.0,87,0.00,,---,0.21,VWS V14.01,2013-09-24 04:02:00,
2013-09-23 22:07:00,32.4,29.2,30.19,NW,323,0.0,0.0,88,0.00,,---,0.21,VWS V14.01,2013-09-24 04:07:00,
2013-09-23 22:12:00,32.4,29.5,30.19,NW,323,0.0,0.0,89,0.00,,---,0.21,VWS V14.01,2013-09-24 04:12:00,
2013-09-23 22:17:00,32.6,30.0,30.19,NW,323,0.0,0.0,90,0.00,,---,0.21,VWS V14.01,2013-09-24 04:17:00,
2013-09-23 22:22:00,32.5,29.9,30.19,NW,323,0.0,0.0,90,0.00,,---,0.21,VWS V14.01,2013-09-24 04:22:00,
2013-09-23 22:27:00,32.3,29.4,30.18,NW,323,2.0,2.0,89,0.00,,---,0.21,VWS V14.01,2013-09-24 04:27:00,
2013-09-23 22:32:00,32.2,29.3,30.19,NW,323,0.0,0.0,89,0.00,,---,0.21,VWS V14.01,2013-09-24 04:32:00,
2013-09-23 22:37:00,32.1,29.2,30.19,NW,323,0.0,0.0,89,0.00,,---,0.21,VWS V14.01,2013-09-24 04:37:00,
2013-09-23 22:42:00,31.9,29.0,30.19,NW,323,0.0,0.0,89,0.00,,---,0.21,VWS V14.01,2013-09-24 04:42:00,
2013-09-23 22:47:00,31.7,28.8,30.19,NW,323,0.0,0.0,89,0.00,,---,0.21,VWS V14.01,2013-09-24 04:47:00,
2013-09-23 22:52:00,31.6,28.7,30.20,NW,323,5.0,7.0,89,0.00,,---,0.21,VWS V14.01,2013-09-24 04:52:00,
2013-09-23 22:57:00,31.5,28.6,30.20,NW,323,4.0,5.0,89,0.00,,---,0.21,VWS V14.01,2013-09-24 04:57:00,
2013-09-23 23:02:00,31.7,29.1,30.20,NW,323,5.0,5.0,90,0.00,,---,0.21,VWS V14.01,2013-09-24 05:02:00,
2013-09-23 23:07:00,31.6,29.0,30.20,NW,323,3.0,3.0,90,0.00,,---,0.21,VWS V14.01,2013-09-24 05:07:00,
2013-09-23 23:12:00,31.6,29.0,30.20,NW,323,3.0,3.0,90,0.00,,---,0.21,VWS V14.01,2013-09-24 05:12:00,
2013-09-23 23:17:00,31.8,29.2,30.20,NW,323,0.0,0.0,90,0.00,,---,0.21,VWS V14.01,2013-09-24 05:17:00,
2013-09-23 23:22:00,31.8,29.2,30.20,NW,323,0.0,0.0,90,0.00,,---,0.21,VWS V14.01,2013-09-24 05:22:00,
2013-09-23 23:27:00,31.7,29.1,30.20,NW,323,0.0,0.0,90,0.00,,---,0.21,VWS V14.01,2013-09-24 05:27:00,
2013-09-23 23:32:00,31.5,28.6,30.20,NW,323,0.0,0.0,89,0.00,,---,0.21,VWS V14.01,2013-09-24 05:32:00,
2013-09-23 23:37:00,31.4,28.8,30.20,NW,323,0.0,0.0,90,0.00,,---,0.21,VWS V14.01,2013-09-24 05:37:00,
2013-09-23 23:42:00,31.2,28.3,30.21,NW,323,0.0,0.0,89,0.00,,---,0.21,VWS V14.01,2013-09-24 05:42:00,
2013-09-23 23:47:00,30.9,28.0,30.21,NW,323,4.0,4.0,89,0.00,,---,0.21,VWS V14.01,2013-09-24 05:47:00,
2013-09-23 23:52:00,30.6,27.8,30.21,NW,323,0.0,0.0,89,0.00,,---,0.21,VWS V14.01,2013-09-24 05:52:00,
2013-09-23 23:57:00,30.4,27.8,30.21,NW,323,0.0,0.0,90,0.00,,---,0.21,VWS V14.01,2013-09-24 05:57:00,